createdAt,value
2017-08-02T00:00:39.450Z,99.90
2017-08-02T00:03:07.702Z,99.90
2017-08-02T00:05:35.262Z,99.90
2017-08-02T00:08:02.722Z,99.90
2017-08-02T00:10:30.176Z,99.90
2017-08-02T00:12:57.721Z,99.90
2017-08-02T00:15:25.210Z,99.90
2017-08-02T00:17:53.437Z,99.90
2017-08-02T00:20:20.887Z,99.90
2017-08-02T00:22:48.363Z,99.90
2017-08-02T00:25:15.934Z,99.90
2017-08-02T00:27:43.398Z,99.90
2017-08-02T00:30:10.846Z,99.90
2017-08-02T00:32:38.405Z,99.90
2017-08-02T00:35:05.861Z,99.90
2017-08-02T00:37:33.335Z,99.90
2017-08-02T00:40:01.554Z,99.90
2017-08-02T00:42:29.052Z,99.90
2017-08-02T00:44:56.514Z,99.90
2017-08-02T00:47:24.060Z,99.90
2017-08-02T00:49:51.621Z,99.90
2017-08-02T00:52:19.079Z,99.90
2017-08-02T00:54:46.633Z,99.90
2017-08-02T00:57:14.091Z,99.90
2017-08-02T00:59:41.552Z,99.90
2017-08-02T01:02:08.994Z,99.90
2017-08-02T01:04:36.554Z,99.90
2017-08-02T01:07:04.012Z,99.90
2017-08-02T01:09:31.573Z,99.90
2017-08-02T01:11:59.047Z,99.90
2017-08-02T01:14:26.594Z,99.90
2017-08-02T01:16:54.066Z,99.90
2017-08-02T01:19:21.597Z,99.90
2017-08-02T01:21:49.067Z,99.90
2017-08-02T01:24:16.531Z,99.90
2017-08-02T01:26:44.003Z,99.90
2017-08-02T01:29:11.454Z,99.90
2017-08-02T01:31:39.701Z,99.90
2017-08-02T01:34:07.268Z,99.90
2017-08-02T01:36:34.821Z,99.90
2017-08-02T01:39:02.382Z,99.90
2017-08-02T01:41:29.841Z,99.90
2017-08-02T01:43:57.304Z,99.90
2017-08-02T01:46:24.753Z,99.90
2017-08-02T01:48:52.221Z,99.90
2017-08-02T01:51:19.766Z,99.90
2017-08-02T01:53:47.318Z,99.90
2017-08-02T01:56:14.774Z,99.90
2017-08-02T01:58:42.333Z,99.90
2017-08-02T02:01:09.795Z,99.90
2017-08-02T02:03:37.254Z,99.90
2017-08-02T02:06:04.800Z,99.90
2017-08-02T02:08:32.261Z,99.90
2017-08-02T02:10:59.725Z,99.90
2017-08-02T02:13:27.169Z,99.90
2017-08-02T02:15:54.646Z,99.90
2017-08-02T02:18:22.091Z,99.90
2017-08-02T02:20:49.549Z,99.90
2017-08-02T02:23:17.006Z,99.90
2017-08-02T02:25:44.466Z,99.90
2017-08-02T02:28:12.020Z,99.90
2017-08-02T02:30:39.497Z,99.90
2017-08-02T02:33:07.757Z,99.90
2017-08-02T02:35:35.305Z,99.90
2017-08-02T02:38:02.770Z,99.90
2017-08-02T02:40:30.233Z,99.90
2017-08-02T02:42:58.473Z,99.90
2017-08-02T02:45:25.934Z,99.90
2017-08-02T02:47:53.394Z,99.90
2017-08-02T02:50:20.848Z,99.90
2017-08-02T02:52:48.427Z,99.90
2017-08-02T02:55:15.876Z,99.90
2017-08-02T02:57:43.336Z,99.90
2017-08-02T03:00:10.796Z,99.90
2017-08-02T03:02:38.349Z,99.90
2017-08-02T03:05:05.806Z,99.90
2017-08-02T03:07:33.257Z,99.90
2017-08-02T03:10:00.717Z,99.90
2017-08-02T03:12:28.170Z,99.90
2017-08-02T03:14:55.637Z,99.90
2017-08-02T03:17:23.094Z,99.90
2017-08-02T03:19:50.562Z,99.90
2017-08-02T03:22:18.209Z,99.90
2017-08-02T03:24:45.665Z,99.90
2017-08-02T03:27:13.127Z,99.90
2017-08-02T03:29:40.603Z,99.90
2017-08-02T03:32:08.857Z,99.90
2017-08-02T03:34:36.322Z,99.90
2017-08-02T03:37:03.774Z,99.90
2017-08-02T03:39:31.223Z,99.90
2017-08-02T03:41:58.774Z,99.90
2017-08-02T03:44:26.328Z,99.90
2017-08-02T03:46:53.801Z,99.90
2017-08-02T03:49:21.267Z,99.90
2017-08-02T03:51:48.725Z,99.90
2017-08-02T03:54:16.953Z,99.90
2017-08-02T03:56:44.532Z,99.90
2017-08-02T03:59:11.985Z,99.90
2017-08-02T04:01:39.442Z,99.90
2017-08-02T04:04:07.008Z,99.90
2017-08-02T04:06:34.464Z,99.90
2017-08-02T04:09:01.922Z,99.90
2017-08-02T04:11:30.114Z,99.90
2017-08-02T04:13:58.341Z,99.90
2017-08-02T04:16:25.821Z,99.90
2017-08-02T04:18:53.282Z,99.90
2017-08-02T04:21:20.738Z,99.90
2017-08-02T04:23:48.219Z,99.90
2017-08-02T04:26:16.449Z,99.90
2017-08-02T04:28:43.910Z,99.90
2017-08-02T04:31:11.369Z,99.90
2017-08-02T04:33:38.826Z,99.90
2017-08-02T04:36:06.295Z,99.90
2017-08-02T04:38:33.748Z,99.90
2017-08-02T04:41:01.214Z,99.90
2017-08-02T04:43:28.664Z,99.90
2017-08-02T04:45:56.130Z,99.90
2017-08-02T04:48:23.582Z,99.90
2017-08-02T04:50:51.134Z,99.90
2017-08-02T04:53:18.593Z,99.90
2017-08-02T04:55:46.046Z,99.90
2017-08-02T04:58:13.613Z,99.90
2017-08-02T05:00:41.068Z,99.90
2017-08-02T05:03:08.530Z,99.90
2017-08-02T05:05:35.972Z,99.90
2017-08-02T05:08:03.440Z,99.90
2017-08-02T05:10:30.886Z,99.90
2017-08-02T05:12:58.356Z,99.90
2017-08-02T05:15:25.810Z,99.90
2017-08-02T05:17:53.257Z,99.90
2017-08-02T05:20:20.801Z,99.90
2017-08-02T05:22:48.274Z,99.90
2017-08-02T05:25:15.826Z,99.90
2017-08-02T05:27:43.390Z,99.90
2017-08-02T05:30:10.858Z,99.90
2017-08-02T05:32:38.322Z,99.90
2017-08-02T05:35:06.566Z,99.90
2017-08-02T05:37:34.030Z,99.90
2017-08-02T05:40:01.593Z,99.90
2017-08-02T05:42:29.047Z,99.90
2017-08-02T05:44:56.510Z,99.90
2017-08-02T05:47:23.974Z,99.90
2017-08-02T05:49:51.426Z,99.90
2017-08-02T05:52:18.881Z,99.90
2017-08-02T05:54:46.361Z,99.90
2017-08-02T05:57:14.573Z,99.90
2017-08-02T05:59:42.026Z,99.90
2017-08-02T06:02:09.525Z,99.90
2017-08-02T06:04:36.974Z,99.90
2017-08-02T06:07:04.432Z,99.90
2017-08-02T06:09:31.893Z,99.90
2017-08-02T06:11:59.353Z,99.90
2017-08-02T06:14:26.806Z,99.90
2017-08-02T06:16:55.028Z,99.90
2017-08-02T06:19:22.525Z,99.90
2017-08-02T06:21:50.088Z,99.90
2017-08-02T06:24:17.532Z,99.90
2017-08-02T06:26:44.988Z,99.90
2017-08-02T06:29:12.453Z,99.90
2017-08-02T06:31:40.013Z,99.90
2017-08-02T06:34:07.453Z,99.90
2017-08-02T06:36:34.912Z,99.90
2017-08-02T06:39:02.358Z,99.90
2017-08-02T06:41:29.851Z,99.90
2017-08-02T06:43:57.393Z,99.90
2017-08-02T06:46:24.839Z,99.90
2017-08-02T06:48:52.308Z,99.90
2017-08-02T06:51:19.762Z,99.90
2017-08-02T06:53:47.330Z,99.90
2017-08-02T06:56:14.889Z,99.90
2017-08-02T06:58:42.349Z,99.90
2017-08-02T07:01:09.797Z,99.90
2017-08-02T07:03:37.273Z,99.90
2017-08-02T07:06:04.726Z,99.90
2017-08-02T07:08:32.175Z,99.90
2017-08-02T07:10:59.634Z,99.90
2017-08-02T07:13:27.178Z,99.90
2017-08-02T07:15:54.647Z,99.90
2017-08-02T07:18:23.612Z,99.90
2017-08-02T07:20:51.090Z,99.90
2017-08-02T07:23:18.533Z,99.90
2017-08-02T07:25:46.095Z,99.90
2017-08-02T07:28:13.567Z,99.90
2017-08-02T07:30:41.026Z,99.90
2017-08-02T07:33:09.982Z,99.90
2017-08-02T07:35:37.454Z,99.90
2017-08-02T07:38:04.902Z,99.90
2017-08-02T07:40:32.374Z,99.90
2017-08-02T07:42:59.937Z,99.90
2017-08-02T07:45:27.401Z,99.90
2017-08-02T07:47:54.856Z,99.90
2017-08-02T07:50:22.301Z,99.90
2017-08-02T07:52:49.869Z,99.90
2017-08-02T07:55:17.323Z,99.90
2017-08-02T07:57:44.789Z,99.90
2017-08-02T08:00:12.246Z,99.90
2017-08-02T08:02:39.705Z,99.90
2017-08-02T08:05:07.150Z,99.90
2017-08-02T08:07:34.617Z,99.90
2017-08-02T08:10:02.163Z,99.90
2017-08-02T08:12:29.610Z,99.90
2017-08-02T08:14:57.083Z,99.90
2017-08-02T08:17:24.525Z,99.90
2017-08-02T08:19:52.086Z,99.90
2017-08-02T08:22:19.529Z,99.90
2017-08-02T08:24:47.099Z,99.90
2017-08-02T08:27:14.549Z,99.90
2017-08-02T08:29:42.110Z,99.90
2017-08-02T08:32:09.564Z,99.90
2017-08-02T08:34:37.005Z,99.90
2017-08-02T08:37:04.481Z,99.90
2017-08-02T08:39:31.961Z,99.90
2017-08-02T08:42:00.845Z,99.90
2017-08-02T08:44:28.387Z,99.90
2017-08-02T08:46:55.950Z,99.90
2017-08-02T08:49:23.404Z,99.90
2017-08-02T08:51:50.858Z,99.90
2017-08-02T08:54:18.310Z,99.90
2017-08-02T08:56:45.881Z,99.90
2017-08-02T08:59:13.425Z,99.90
2017-08-02T09:01:40.992Z,99.90
2017-08-02T09:04:08.555Z,99.90
2017-08-02T09:06:36.014Z,99.90
2017-08-02T09:09:03.461Z,99.90
2017-08-02T09:11:30.920Z,99.90
2017-08-02T09:13:58.370Z,99.90
2017-08-02T09:16:25.823Z,99.90
2017-08-02T09:18:53.277Z,99.90
2017-08-02T09:21:20.727Z,99.90
2017-08-02T09:23:48.211Z,99.90
2017-08-02T09:26:15.658Z,99.90
2017-08-02T09:28:43.206Z,99.90
2017-08-02T09:31:10.658Z,99.90
2017-08-02T09:33:38.126Z,99.90
2017-08-02T09:36:05.702Z,99.90
2017-08-02T09:38:33.242Z,99.90
2017-08-02T09:41:00.689Z,99.90
2017-08-02T09:43:28.144Z,99.90
2017-08-02T09:45:55.607Z,99.90
2017-08-02T09:48:23.066Z,99.90
2017-08-02T09:50:50.628Z,99.90
2017-08-02T09:53:18.186Z,99.90
2017-08-02T09:55:45.737Z,99.90
2017-08-02T09:58:13.186Z,99.90
2017-08-02T10:00:40.649Z,99.90
2017-08-02T10:03:08.097Z,99.90
2017-08-02T10:05:35.578Z,99.90
2017-08-02T10:08:03.021Z,99.90
2017-08-02T10:10:30.474Z,99.90
2017-08-02T10:12:58.038Z,99.90
2017-08-02T10:15:25.482Z,99.90
2017-08-02T10:17:52.946Z,99.90
2017-08-02T10:20:20.401Z,99.90
2017-08-02T10:22:47.845Z,99.90
2017-08-02T10:25:15.293Z,99.90
2017-08-02T10:27:42.750Z,99.90
2017-08-02T10:30:10.205Z,99.90
2017-08-02T10:32:37.730Z,99.90
2017-08-02T10:35:05.182Z,99.90
2017-08-02T10:37:33.402Z,99.90
2017-08-02T10:40:00.883Z,99.90
2017-08-02T10:42:28.429Z,99.90
2017-08-02T10:44:55.895Z,99.90
2017-08-02T10:47:23.349Z,99.90
2017-08-02T10:49:50.910Z,99.90
2017-08-02T10:52:18.469Z,99.90
2017-08-02T10:54:45.925Z,99.90
2017-08-02T10:57:13.374Z,99.90
2017-08-02T10:59:40.830Z,99.90
2017-08-02T11:02:08.287Z,99.90
2017-08-02T11:04:35.746Z,99.90
2017-08-02T11:07:03.306Z,99.90
2017-08-02T11:09:30.754Z,99.90
2017-08-02T11:11:58.213Z,99.90
2017-08-02T11:14:25.670Z,99.90
2017-08-02T11:16:53.135Z,99.90
2017-08-02T11:19:20.595Z,99.90
2017-08-02T11:21:48.050Z,99.90
2017-08-02T11:24:15.507Z,99.90
2017-08-02T11:26:42.966Z,99.90
2017-08-02T11:29:10.514Z,99.90
2017-08-02T11:31:37.970Z,99.90
2017-08-02T11:34:05.521Z,99.90
2017-08-02T11:36:32.974Z,99.90
2017-08-02T11:39:00.446Z,99.90
2017-08-02T11:41:27.911Z,99.90
2017-08-02T11:43:55.363Z,99.90
2017-08-02T11:46:22.822Z,99.90
2017-08-02T11:48:50.279Z,99.90
2017-08-02T11:51:17.830Z,99.90
2017-08-02T11:53:45.306Z,99.90
2017-08-02T11:56:13.519Z,99.90
2017-08-02T11:58:40.967Z,99.90
2017-08-02T12:01:08.465Z,99.90
2017-08-02T12:03:36.030Z,99.90
2017-08-02T12:06:03.485Z,99.90
2017-08-02T12:08:30.934Z,99.90
2017-08-02T12:10:58.385Z,99.90
2017-08-02T12:13:25.833Z,99.90
2017-08-02T12:15:53.292Z,99.90
2017-08-02T12:18:20.745Z,99.90
2017-08-02T12:20:48.232Z,99.90
2017-08-02T12:23:15.674Z,99.90
2017-08-02T12:25:43.233Z,99.90
2017-08-02T12:28:10.707Z,99.90
2017-08-02T12:30:38.158Z,99.90
2017-08-02T12:33:05.620Z,99.90
2017-08-02T12:35:33.065Z,99.90
2017-08-02T12:38:00.532Z,99.90
2017-08-02T12:40:27.973Z,99.90
2017-08-02T12:42:55.446Z,99.90
2017-08-02T12:45:22.998Z,99.90
2017-08-02T12:47:50.441Z,99.90
2017-08-02T12:50:18.001Z,99.90
2017-08-02T12:52:45.575Z,99.90
2017-08-02T12:55:13.107Z,99.90
2017-08-02T12:57:40.556Z,99.90
2017-08-02T13:00:08.043Z,99.90
2017-08-02T13:02:35.503Z,99.90
2017-08-02T13:05:02.962Z,99.90
2017-08-02T13:07:30.418Z,99.90
2017-08-02T13:09:57.953Z,99.90
2017-08-02T13:12:25.415Z,99.90
2017-08-02T13:14:52.861Z,99.90
2017-08-02T13:17:20.429Z,99.90
2017-08-02T13:19:47.886Z,99.90
2017-08-02T13:22:15.962Z,99.90
2017-08-02T13:24:43.518Z,99.70
2017-08-02T13:27:11.074Z,99.90
2017-08-02T13:29:38.537Z,99.90
2017-08-02T13:32:05.989Z,99.90
2017-08-02T13:34:33.546Z,99.90
2017-08-02T13:37:00.997Z,99.90
2017-08-02T13:39:28.462Z,99.40
2017-08-02T13:41:55.910Z,99.90
2017-08-02T13:44:23.482Z,99.60
2017-08-02T13:46:50.937Z,96.30
2017-08-02T13:49:18.389Z,97.40
2017-08-02T13:51:45.844Z,98.80
2017-08-02T13:54:13.299Z,98.80
2017-08-02T13:56:40.858Z,96.60
2017-08-02T13:59:08.308Z,95.50
2017-08-02T14:01:35.769Z,95.70
2017-08-02T14:04:03.223Z,97.30
2017-08-02T14:06:30.696Z,98.50
2017-08-02T14:08:58.929Z,96.50
2017-08-02T14:11:26.414Z,96.50
2017-08-02T14:13:53.871Z,99.90
2017-08-02T14:16:21.313Z,99.10
2017-08-02T14:18:48.774Z,99.10
2017-08-02T14:21:16.223Z,98.30
2017-08-02T14:23:43.677Z,99.10
2017-08-02T14:26:11.118Z,99.40
2017-08-02T14:28:38.573Z,99.10
2017-08-02T14:31:06.017Z,99.50
2017-08-02T14:33:33.589Z,98.30
2017-08-02T14:36:01.078Z,99.80
2017-08-02T14:38:28.640Z,98.90
2017-08-02T14:40:56.092Z,99.70
2017-08-02T14:43:23.542Z,95.80
2017-08-02T14:45:50.993Z,94.60
2017-08-02T14:48:18.454Z,94.00
2017-08-02T14:50:46.022Z,94.20
2017-08-02T14:53:13.469Z,94.20
2017-08-02T14:55:40.916Z,94.50
2017-08-02T14:58:08.376Z,95.10
2017-08-02T15:00:35.946Z,94.90
2017-08-02T15:03:03.394Z,93.30
2017-08-02T15:05:30.841Z,92.50
2017-08-02T15:07:58.297Z,92.10
2017-08-02T15:10:25.745Z,92.10
2017-08-02T15:12:53.227Z,93.30
2017-08-02T15:15:20.682Z,93.70
2017-08-02T15:17:48.155Z,93.70
2017-08-02T15:20:15.598Z,93.60
2017-08-02T15:22:43.057Z,93.50
2017-08-02T15:25:10.514Z,93.70
2017-08-02T15:27:37.991Z,93.40
2017-08-02T15:30:06.246Z,93.40
2017-08-02T15:32:33.694Z,93.10
2017-08-02T15:35:01.159Z,92.80
2017-08-02T15:37:28.602Z,92.80
2017-08-02T15:39:56.067Z,91.20
2017-08-02T15:42:23.620Z,91.50
2017-08-02T15:44:51.072Z,92.10
2017-08-02T15:47:18.522Z,92.30
2017-08-02T15:49:46.001Z,93.00
2017-08-02T15:52:13.433Z,91.60
2017-08-02T15:54:40.904Z,91.70
2017-08-02T15:57:08.354Z,91.80
2017-08-02T15:59:35.922Z,92.30
2017-08-02T16:02:03.445Z,92.00
2017-08-02T16:04:30.904Z,91.40
2017-08-02T16:06:58.359Z,90.90
2017-08-02T16:09:25.801Z,91.20
2017-08-02T16:11:53.266Z,91.80
2017-08-02T16:14:20.757Z,90.90
2017-08-02T16:16:48.216Z,92.70
2017-08-02T16:19:15.661Z,91.80
2017-08-02T16:21:43.238Z,91.60
2017-08-02T16:24:10.689Z,92.40
2017-08-02T16:26:38.167Z,92.30
2017-08-02T16:29:06.386Z,92.80
2017-08-02T16:31:33.840Z,92.70
2017-08-02T16:34:01.326Z,92.80
2017-08-02T16:36:28.889Z,92.60
2017-08-02T16:38:56.337Z,92.10
2017-08-02T16:41:23.801Z,93.40
2017-08-02T16:43:51.329Z,91.80
2017-08-02T16:46:18.770Z,93.00
2017-08-02T16:48:46.279Z,91.80
2017-08-02T16:51:13.726Z,91.80
2017-08-02T16:53:41.186Z,93.10
2017-08-02T16:56:08.662Z,94.20
2017-08-02T16:58:36.111Z,92.70
2017-08-02T17:01:03.562Z,93.20
2017-08-02T17:03:31.697Z,92.70
2017-08-02T17:05:59.179Z,93.50
2017-08-02T17:08:26.790Z,93.30
2017-08-02T17:10:54.331Z,92.10
2017-08-02T17:13:22.550Z,92.40
2017-08-02T17:15:50.014Z,92.40
2017-08-02T17:18:17.490Z,93.50
2017-08-02T17:20:45.041Z,92.90
2017-08-02T17:23:12.497Z,93.50
2017-08-02T17:25:39.972Z,94.20
2017-08-02T17:28:07.538Z,94.40
2017-08-02T17:30:35.073Z,94.50
2017-08-02T17:33:02.570Z,94.90
2017-08-02T17:35:30.838Z,95.50
2017-08-02T17:37:59.108Z,98.90
2017-08-02T17:40:27.343Z,96.50
2017-08-02T17:42:54.918Z,96.10
2017-08-02T17:45:22.456Z,95.80
2017-08-02T17:47:49.917Z,96.50
2017-08-02T17:50:17.457Z,96.60
2017-08-02T17:52:44.964Z,96.60
2017-08-02T17:55:12.547Z,96.40
2017-08-02T17:57:40.761Z,97.60
2017-08-02T18:00:08.234Z,97.60
2017-08-02T18:02:35.697Z,97.80
2017-08-02T18:05:03.147Z,98.60
2017-08-02T18:07:30.593Z,99.10
2017-08-02T18:09:58.053Z,99.60
2017-08-02T18:12:25.514Z,99.60
2017-08-02T18:14:53.034Z,99.90
2017-08-02T18:17:20.547Z,99.90
2017-08-02T18:19:48.101Z,99.90
2017-08-02T18:22:16.623Z,99.90
2017-08-02T18:24:44.236Z,99.90
2017-08-02T18:27:13.611Z,99.90
2017-08-02T18:29:41.154Z,99.90
2017-08-02T18:32:11.914Z,99.90
2017-08-02T18:34:39.410Z,99.90
2017-08-02T18:37:07.668Z,99.90
2017-08-02T18:39:35.121Z,99.90
2017-08-02T18:42:02.669Z,99.90
2017-08-02T18:44:30.226Z,99.90
2017-08-02T18:46:57.841Z,99.90
2017-08-02T18:49:25.275Z,99.90
2017-08-02T18:51:53.526Z,99.90
2017-08-02T18:54:21.494Z,99.90
2017-08-02T18:56:49.020Z,99.90
2017-08-02T18:59:16.457Z,99.90
2017-08-02T19:01:43.926Z,99.90
2017-08-02T19:04:11.376Z,99.90
2017-08-02T19:06:38.914Z,99.90
2017-08-02T19:09:06.414Z,99.90
2017-08-02T19:11:33.895Z,99.90
2017-08-02T19:14:01.407Z,99.90
2017-08-02T19:16:28.911Z,99.90
2017-08-02T19:18:56.518Z,99.90
2017-08-02T19:21:24.013Z,99.90
2017-08-02T19:23:51.569Z,99.90
2017-08-02T19:26:19.067Z,99.90
2017-08-02T19:28:47.319Z,99.90
2017-08-02T19:31:14.770Z,99.90
2017-08-02T19:33:42.311Z,99.90
2017-08-02T19:36:09.745Z,99.90
2017-08-02T19:38:37.314Z,99.90
2017-08-02T19:41:04.802Z,99.90
2017-08-02T19:43:32.261Z,99.90
2017-08-02T19:45:59.788Z,99.90
2017-08-02T19:48:27.380Z,99.90
2017-08-02T19:50:54.834Z,99.90
2017-08-02T19:53:22.331Z,99.90
2017-08-02T19:55:49.841Z,99.90
2017-08-02T19:58:17.298Z,99.90
2017-08-02T20:00:44.757Z,99.90
2017-08-02T20:03:12.248Z,99.90
2017-08-02T20:05:40.502Z,99.90
2017-08-02T20:08:08.029Z,99.90
2017-08-02T20:10:35.529Z,99.90
2017-08-02T20:13:03.734Z,99.90
2017-08-02T20:15:31.238Z,99.90
2017-08-02T20:17:58.758Z,99.90
2017-08-02T20:20:26.205Z,99.90
2017-08-02T20:22:53.669Z,99.90
2017-08-02T20:25:21.180Z,99.90
2017-08-02T20:27:48.636Z,99.90
2017-08-02T20:30:16.899Z,99.90
2017-08-02T20:32:44.506Z,99.90
2017-08-02T20:35:12.009Z,99.90
2017-08-02T20:37:39.519Z,99.90
2017-08-02T20:40:06.963Z,99.90
2017-08-02T20:42:34.976Z,99.90
2017-08-02T20:45:02.433Z,99.90
2017-08-02T20:47:29.890Z,99.90
2017-08-02T20:49:57.523Z,99.90
2017-08-02T20:52:24.965Z,99.90
2017-08-02T20:54:52.475Z,99.90
2017-08-02T20:57:19.923Z,99.90
2017-08-02T20:59:47.424Z,99.90
2017-08-02T21:02:15.702Z,99.90
2017-08-02T21:04:43.988Z,99.90
2017-08-02T21:07:11.537Z,99.90
2017-08-02T21:09:39.835Z,99.90
2017-08-02T21:12:07.376Z,99.90
2017-08-02T21:14:35.604Z,99.90
2017-08-02T21:17:03.915Z,99.90
2017-08-02T21:19:32.168Z,99.90
2017-08-02T21:21:59.715Z,99.90
2017-08-02T21:24:27.174Z,99.90
2017-08-02T21:26:54.815Z,99.90
2017-08-02T21:29:22.267Z,99.90
2017-08-02T21:31:49.754Z,99.90
2017-08-02T21:34:17.210Z,99.90
2017-08-02T21:36:44.676Z,99.90
2017-08-02T21:39:12.929Z,99.90
2017-08-02T21:41:40.502Z,99.90
2017-08-02T21:44:08.095Z,99.90
2017-08-02T21:46:36.298Z,99.90
2017-08-02T21:49:03.764Z,99.90
2017-08-02T21:51:31.212Z,99.90
2017-08-02T21:53:58.685Z,99.90
2017-08-02T21:56:26.133Z,99.90
2017-08-02T21:58:53.596Z,99.90
2017-08-02T22:02:35.904Z,99.90
2017-08-02T22:05:03.367Z,99.90
2017-08-02T22:07:30.830Z,99.90
2017-08-02T22:09:58.386Z,99.90
2017-08-02T22:12:25.846Z,99.90
2017-08-02T22:14:53.614Z,99.90
2017-08-02T22:17:21.070Z,99.90
2017-08-02T22:19:48.553Z,99.90
2017-08-02T22:22:16.787Z,99.90
2017-08-02T22:24:44.264Z,99.90
2017-08-02T22:27:11.810Z,99.90
2017-08-02T22:29:39.369Z,99.90
2017-08-02T22:32:06.834Z,99.90
2017-08-02T22:34:34.291Z,99.90
2017-08-02T22:37:01.746Z,99.90
2017-08-02T22:39:29.299Z,99.90
2017-08-02T22:41:56.783Z,99.90
2017-08-02T22:44:25.002Z,99.90
2017-08-02T22:46:52.457Z,99.90
2017-08-02T22:49:19.922Z,99.90
2017-08-02T22:51:47.389Z,99.90
2017-08-02T22:54:14.853Z,99.90
2017-08-02T22:56:42.305Z,99.90
2017-08-02T22:59:09.774Z,99.90
2017-08-02T23:01:37.231Z,99.90
2017-08-02T23:04:04.698Z,99.90
2017-08-02T23:06:32.924Z,99.90
2017-08-02T23:09:00.398Z,99.90
2017-08-02T23:11:27.853Z,99.90
2017-08-02T23:13:55.423Z,99.90
2017-08-02T23:16:22.886Z,99.90
2017-08-02T23:18:50.437Z,99.90
2017-08-02T23:21:17.896Z,99.90
2017-08-02T23:23:45.454Z,99.90
2017-08-02T23:26:12.924Z,99.90
2017-08-02T23:28:40.378Z,99.90
2017-08-02T23:31:07.845Z,99.90
2017-08-02T23:33:36.068Z,99.90
2017-08-02T23:36:03.534Z,99.90
2017-08-02T23:38:30.981Z,99.90
2017-08-02T23:40:58.459Z,99.90
2017-08-02T23:43:25.914Z,99.90
2017-08-02T23:45:53.374Z,99.90
2017-08-02T23:48:20.838Z,99.90
2017-08-02T23:50:48.289Z,99.90
2017-08-02T23:53:15.758Z,99.90
2017-08-02T23:55:43.221Z,99.90
2017-08-02T23:58:10.677Z,99.90
